Eagles Mere, Pennsylvania
Current Conditions -  °F | °C
As of 2:54 PM on Saturday 20 Dec 2014 (Local Time) from KIPT Reporting Station
Overcast Overcast  
Wind Chill: 33°   Ceiling: 3100
Heat Index: 33°   Visibility: 10mi
Dew Point: 20°   Wind: 3mph
Humidity: 59%   Direction: 240°WSW
Pressure: 30.23"   Gusts: NA
Location:  41.41°N, 76.58°W
Report Text: KIPT 201954Z 24003KT 10SM OVC031 01/M07 A3023 RMK AO2 SLP243 T00061067
Loading
Personal Weather Stations






























Interactive Weather Map New forecast layout! Learn more

10-Day Weather Forecast

Advertisements
Track Severe Weather on mobile